sensor_id;sensor_type;location;lat;lon;timestamp;P1;durP1;ratioP1;P2;durP2;ratioP2
351;SDS011;164;50.784;6.496;2024-03-08T00:00:05;14.88;;;11.50;;
351;SDS011;164;50.784;6.496;2024-03-08T00:02:37;14.80;;;10.43;;
351;SDS011;164;50.784;6.496;2024-03-08T00:05:04;15.73;;;11.60;;
351;SDS011;164;50.784;6.496;2024-03-08T00:07:35;11.20;;;9.88;;
351;SDS011;164;50.784;6.496;2024-03-08T00:10:02;13.82;;;10.05;;
351;SDS011;164;50.784;6.496;2024-03-08T00:12:29;13.00;;;10.00;;
351;SDS011;164;50.784;6.496;2024-03-08T00:14:57;15.48;;;10.50;;
351;SDS011;164;50.784;6.496;2024-03-08T00:17:24;13.63;;;10.20;;
351;SDS011;164;50.784;6.496;2024-03-08T00:19:52;14.18;;;9.73;;
351;SDS011;164;50.784;6.496;2024-03-08T00:22:19;15.13;;;10.80;;
351;SDS011;164;50.784;6.496;2024-03-08T00:24:48;13.77;;;10.40;;
351;SDS011;164;50.784;6.496;2024-03-08T00:27:16;14.05;;;9.98;;
351;SDS011;164;50.784;6.496;2024-03-08T00:29:46;12.63;;;9.90;;
351;SDS011;164;50.784;6.496;2024-03-08T00:32:13;13.43;;;10.20;;
351;SDS011;164;50.784;6.496;2024-03-08T00:34:40;14.60;;;11.20;;
351;SDS011;164;50.784;6.496;2024-03-08T00:37:08;13.57;;;10.93;;
351;SDS011;164;50.784;6.496;2024-03-08T00:39:35;13.88;;;11.32;;
351;SDS011;164;50.784;6.496;2024-03-08T00:42:04;11.30;;;9.52;;
351;SDS011;164;50.784;6.496;2024-03-08T00:44:31;14.25;;;10.77;;
351;SDS011;164;50.784;6.496;2024-03-08T00:46:58;15.98;;;10.35;;
351;SDS011;164;50.784;6.496;2024-03-08T00:49:25;17.17;;;10.88;;
351;SDS011;164;50.784;6.496;2024-03-08T00:51:56;13.88;;;10.05;;
351;SDS011;164;50.784;6.496;2024-03-08T00:54:23;13.02;;;10.38;;
351;SDS011;164;50.784;6.496;2024-03-08T00:56:50;13.85;;;9.88;;
351;SDS011;164;50.784;6.496;2024-03-08T00:59:19;11.20;;;10.38;;
351;SDS011;164;50.784;6.496;2024-03-08T01:01:46;12.40;;;9.70;;
351;SDS011;164;50.784;6.496;2024-03-08T01:04:13;13.15;;;10.18;;
351;SDS011;164;50.784;6.496;2024-03-08T01:06:40;13.80;;;10.93;;
351;SDS011;164;50.784;6.496;2024-03-08T01:09:10;14.23;;;11.13;;
351;SDS011;164;50.784;6.496;2024-03-08T01:11:38;15.50;;;10.75;;
351;SDS011;164;50.784;6.496;2024-03-08T01:14:05;15.68;;;10.00;;
351;SDS011;164;50.784;6.496;2024-03-08T01:16:34;18.52;;;13.35;;
351;SDS011;164;50.784;6.496;2024-03-08T01:19:01;12.50;;;9.32;;
351;SDS011;164;50.784;6.496;2024-03-08T01:21:28;14.70;;;10.98;;
351;SDS011;164;50.784;6.496;2024-03-08T01:23:55;13.65;;;9.55;;
351;SDS011;164;50.784;6.496;2024-03-08T01:26:23;13.25;;;10.10;;
351;SDS011;164;50.784;6.496;2024-03-08T01:28:50;11.38;;;10.15;;
351;SDS011;164;50.784;6.496;2024-03-08T01:31:17;16.60;;;12.45;;
351;SDS011;164;50.784;6.496;2024-03-08T01:33:46;17.98;;;11.73;;
351;SDS011;164;50.784;6.496;2024-03-08T01:36:13;13.85;;;10.02;;
351;SDS011;164;50.784;6.496;2024-03-08T01:38:42;16.02;;;10.63;;
351;SDS011;164;50.784;6.496;2024-03-08T01:41:09;14.02;;;11.73;;
351;SDS011;164;50.784;6.496;2024-03-08T01:43:40;10.50;;;9.45;;
351;SDS011;164;50.784;6.496;2024-03-08T01:46:08;13.90;;;10.85;;
351;SDS011;164;50.784;6.496;2024-03-08T01:48:36;10.82;;;9.55;;
351;SDS011;164;50.784;6.496;2024-03-08T01:51:05;11.02;;;9.32;;
351;SDS011;164;50.784;6.496;2024-03-08T01:53:32;13.70;;;11.30;;
351;SDS011;164;50.784;6.496;2024-03-08T01:55:59;16.38;;;10.80;;
351;SDS011;164;50.784;6.496;2024-03-08T01:58:27;15.60;;;11.25;;
351;SDS011;164;50.784;6.496;2024-03-08T02:00:56;12.85;;;10.23;;
351;SDS011;164;50.784;6.496;2024-03-08T02:03:24;15.05;;;10.50;;
351;SDS011;164;50.784;6.496;2024-03-08T02:05:51;15.60;;;11.25;;
351;SDS011;164;50.784;6.496;2024-03-08T02:08:22;14.23;;;10.70;;
351;SDS011;164;50.784;6.496;2024-03-08T02:10:49;13.95;;;10.93;;
351;SDS011;164;50.784;6.496;2024-03-08T02:13:17;13.80;;;10.70;;
351;SDS011;164;50.784;6.496;2024-03-08T02:15:51;11.90;;;10.68;;
351;SDS011;164;50.784;6.496;2024-03-08T02:18:19;15.02;;;10.93;;
351;SDS011;164;50.784;6.496;2024-03-08T02:20:48;15.88;;;12.00;;
351;SDS011;164;50.784;6.496;2024-03-08T02:23:15;14.38;;;11.95;;
351;SDS011;164;50.784;6.496;2024-03-08T02:25:42;10.77;;;9.50;;
351;SDS011;164;50.784;6.496;2024-03-08T02:28:10;14.30;;;10.82;;
351;SDS011;164;50.784;6.496;2024-03-08T02:30:38;16.67;;;10.90;;
351;SDS011;164;50.784;6.496;2024-03-08T02:33:05;14.05;;;9.85;;
351;SDS011;164;50.784;6.496;2024-03-08T02:35:34;15.10;;;11.38;;
351;SDS011;164;50.784;6.496;2024-03-08T02:38:03;13.90;;;10.52;;
351;SDS011;164;50.784;6.496;2024-03-08T02:40:30;12.75;;;10.55;;
351;SDS011;164;50.784;6.496;2024-03-08T02:43:00;17.13;;;11.68;;
351;SDS011;164;50.784;6.496;2024-03-08T02:45:30;18.80;;;11.30;;
351;SDS011;164;50.784;6.496;2024-03-08T02:47:57;14.52;;;11.00;;
351;SDS011;164;50.784;6.496;2024-03-08T02:50:24;15.20;;;10.75;;
351;SDS011;164;50.784;6.496;2024-03-08T02:52:51;13.80;;;11.55;;
351;SDS011;164;50.784;6.496;2024-03-08T02:55:20;16.63;;;11.80;;
351;SDS011;164;50.784;6.496;2024-03-08T02:57:47;16.20;;;11.13;;
351;SDS011;164;50.784;6.496;2024-03-08T03:00:15;16.55;;;11.80;;
351;SDS011;164;50.784;6.496;2024-03-08T03:02:44;13.07;;;10.82;;
351;SDS011;164;50.784;6.496;2024-03-08T03:05:11;13.32;;;10.10;;
351;SDS011;164;50.784;6.496;2024-03-08T03:07:39;12.70;;;10.00;;
351;SDS011;164;50.784;6.496;2024-03-08T03:10:06;17.20;;;11.90;;
351;SDS011;164;50.784;6.496;2024-03-08T03:12:35;17.00;;;10.90;;
351;SDS011;164;50.784;6.496;2024-03-08T03:15:03;14.80;;;11.00;;
351;SDS011;164;50.784;6.496;2024-03-08T03:17:31;17.15;;;11.90;;
351;SDS011;164;50.784;6.496;2024-03-08T03:19:59;15.43;;;9.45;;
351;SDS011;164;50.784;6.496;2024-03-08T03:22:34;13.25;;;10.18;;
351;SDS011;164;50.784;6.496;2024-03-08T03:25:02;16.30;;;11.40;;
351;SDS011;164;50.784;6.496;2024-03-08T03:27:31;12.50;;;10.27;;
351;SDS011;164;50.784;6.496;2024-03-08T03:30:00;12.40;;;9.68;;
351;SDS011;164;50.784;6.496;2024-03-08T03:32:45;14.60;;;10.25;;
351;SDS011;164;50.784;6.496;2024-03-08T03:35:13;13.95;;;10.43;;
351;SDS011;164;50.784;6.496;2024-03-08T03:37:41;14.75;;;10.13;;
351;SDS011;164;50.784;6.496;2024-03-08T03:40:11;15.52;;;11.60;;
351;SDS011;164;50.784;6.496;2024-03-08T03:42:38;18.10;;;11.45;;
351;SDS011;164;50.784;6.496;2024-03-08T03:45:08;18.17;;;11.23;;
351;SDS011;164;50.784;6.496;2024-03-08T03:47:35;15.38;;;11.77;;
351;SDS011;164;50.784;6.496;2024-03-08T03:50:04;15.63;;;11.43;;
351;SDS011;164;50.784;6.496;2024-03-08T03:52:32;17.45;;;12.00;;
351;SDS011;164;50.784;6.496;2024-03-08T03:54:59;15.57;;;11.93;;
351;SDS011;164;50.784;6.496;2024-03-08T03:57:26;13.50;;;10.75;;
351;SDS011;164;50.784;6.496;2024-03-08T03:59:55;16.77;;;12.30;;
351;SDS011;164;50.784;6.496;2024-03-08T04:02:25;13.70;;;10.60;;
351;SDS011;164;50.784;6.496;2024-03-08T04:04:52;14.80;;;10.48;;
351;SDS011;164;50.784;6.496;2024-03-08T04:07:22;17.77;;;12.85;;
351;SDS011;164;50.784;6.496;2024-03-08T04:09:51;14.43;;;11.02;;
351;SDS011;164;50.784;6.496;2024-03-08T04:12:22;14.73;;;10.73;;
351;SDS011;164;50.784;6.496;2024-03-08T04:14:49;14.98;;;10.48;;
351;SDS011;164;50.784;6.496;2024-03-08T04:17:16;18.88;;;11.52;;
351;SDS011;164;50.784;6.496;2024-03-08T04:19:45;16.63;;;10.38;;
351;SDS011;164;50.784;6.496;2024-03-08T04:22:13;15.25;;;10.65;;
351;SDS011;164;50.784;6.496;2024-03-08T04:24:42;16.40;;;10.18;;
351;SDS011;164;50.784;6.496;2024-03-08T04:27:09;17.77;;;10.68;;
351;SDS011;164;50.784;6.496;2024-03-08T04:29:36;15.27;;;11.32;;
351;SDS011;164;50.784;6.496;2024-03-08T04:32:07;12.85;;;9.95;;
351;SDS011;164;50.784;6.496;2024-03-08T04:34:35;13.18;;;9.02;;
351;SDS011;164;50.784;6.496;2024-03-08T04:37:03;16.20;;;10.82;;
351;SDS011;164;50.784;6.496;2024-03-08T04:39:31;12.98;;;10.60;;
351;SDS011;164;50.784;6.496;2024-03-08T04:41:59;12.80;;;9.65;;
351;SDS011;164;50.784;6.496;2024-03-08T04:44:28;15.20;;;11.38;;
351;SDS011;164;50.784;6.496;2024-03-08T04:46:55;18.52;;;10.48;;
351;SDS011;164;50.784;6.496;2024-03-08T04:49:23;13.35;;;9.90;;
351;SDS011;164;50.784;6.496;2024-03-08T04:51:50;16.58;;;9.70;;
351;SDS011;164;50.784;6.496;2024-03-08T04:54:19;12.45;;;10.30;;
351;SDS011;164;50.784;6.496;2024-03-08T04:56:46;12.70;;;9.90;;
351;SDS011;164;50.784;6.496;2024-03-08T04:59:13;13.52;;;11.52;;
351;SDS011;164;50.784;6.496;2024-03-08T05:01:40;14.50;;;10.75;;
351;SDS011;164;50.784;6.496;2024-03-08T05:04:08;16.17;;;11.55;;
351;SDS011;164;50.784;6.496;2024-03-08T05:06:35;17.20;;;11.13;;
351;SDS011;164;50.784;6.496;2024-03-08T05:09:03;14.73;;;10.57;;
351;SDS011;164;50.784;6.496;2024-03-08T05:11:39;16.13;;;10.95;;
351;SDS011;164;50.784;6.496;2024-03-08T05:14:07;17.58;;;11.82;;
351;SDS011;164;50.784;6.496;2024-03-08T05:16:35;13.93;;;10.55;;
351;SDS011;164;50.784;6.496;2024-03-08T05:19:02;16.35;;;11.63;;
351;SDS011;164;50.784;6.496;2024-03-08T05:21:29;19.08;;;11.25;;
351;SDS011;164;50.784;6.496;2024-03-08T05:23:56;13.52;;;11.35;;
351;SDS011;164;50.784;6.496;2024-03-08T05:26:24;14.70;;;10.57;;
351;SDS011;164;50.784;6.496;2024-03-08T05:28:52;13.85;;;10.55;;
351;SDS011;164;50.784;6.496;2024-03-08T05:31:20;13.93;;;9.57;;
351;SDS011;164;50.784;6.496;2024-03-08T05:33:48;16.33;;;11.30;;
351;SDS011;164;50.784;6.496;2024-03-08T05:36:15;17.08;;;11.27;;
351;SDS011;164;50.784;6.496;2024-03-08T05:38:42;14.90;;;11.75;;
351;SDS011;164;50.784;6.496;2024-03-08T05:41:10;16.75;;;10.55;;
351;SDS011;164;50.784;6.496;2024-03-08T05:43:37;22.92;;;12.10;;
351;SDS011;164;50.784;6.496;2024-03-08T05:46:06;18.73;;;12.43;;
351;SDS011;164;50.784;6.496;2024-03-08T05:48:33;16.92;;;12.07;;
351;SDS011;164;50.784;6.496;2024-03-08T05:51:00;19.40;;;12.38;;
351;SDS011;164;50.784;6.496;2024-03-08T05:53:28;17.65;;;11.65;;
351;SDS011;164;50.784;6.496;2024-03-08T05:55:56;15.25;;;11.25;;
351;SDS011;164;50.784;6.496;2024-03-08T05:58:24;16.25;;;10.50;;
351;SDS011;164;50.784;6.496;2024-03-08T06:00:51;18.70;;;11.45;;
351;SDS011;164;50.784;6.496;2024-03-08T06:03:20;15.93;;;12.00;;
351;SDS011;164;50.784;6.496;2024-03-08T06:05:47;15.93;;;11.43;;
351;SDS011;164;50.784;6.496;2024-03-08T06:08:15;12.55;;;10.57;;
351;SDS011;164;50.784;6.496;2024-03-08T06:10:43;17.05;;;11.50;;
351;SDS011;164;50.784;6.496;2024-03-08T06:13:11;16.92;;;12.32;;
351;SDS011;164;50.784;6.496;2024-03-08T06:15:38;17.20;;;12.95;;
351;SDS011;164;50.784;6.496;2024-03-08T06:18:05;13.93;;;9.85;;
351;SDS011;164;50.784;6.496;2024-03-08T06:20:37;14.00;;;9.73;;
351;SDS011;164;50.784;6.496;2024-03-08T06:23:04;15.90;;;10.75;;
351;SDS011;164;50.784;6.496;2024-03-08T06:25:31;12.20;;;9.48;;
351;SDS011;164;50.784;6.496;2024-03-08T06:28:00;17.35;;;11.32;;
351;SDS011;164;50.784;6.496;2024-03-08T06:30:27;14.48;;;10.40;;
351;SDS011;164;50.784;6.496;2024-03-08T06:32:54;16.17;;;12.07;;
351;SDS011;164;50.784;6.496;2024-03-08T06:35:21;19.85;;;12.15;;
351;SDS011;164;50.784;6.496;2024-03-08T06:37:51;19.45;;;11.68;;
351;SDS011;164;50.784;6.496;2024-03-08T06:40:18;16.90;;;12.82;;
351;SDS011;164;50.784;6.496;2024-03-08T06:42:45;19.48;;;12.85;;
351;SDS011;164;50.784;6.496;2024-03-08T06:45:13;15.63;;;10.90;;
351;SDS011;164;50.784;6.496;2024-03-08T06:50:34;16.10;;;11.43;;
351;SDS011;164;50.784;6.496;2024-03-08T06:53:03;17.20;;;11.25;;
351;SDS011;164;50.784;6.496;2024-03-08T06:55:31;17.23;;;12.13;;
351;SDS011;164;50.784;6.496;2024-03-08T06:57:59;19.98;;;12.75;;
351;SDS011;164;50.784;6.496;2024-03-08T07:00:26;18.20;;;11.07;;
351;SDS011;164;50.784;6.496;2024-03-08T07:02:55;13.68;;;9.07;;
351;SDS011;164;50.784;6.496;2024-03-08T07:05:25;14.93;;;11.80;;
351;SDS011;164;50.784;6.496;2024-03-08T07:07:53;16.63;;;11.40;;
351;SDS011;164;50.784;6.496;2024-03-08T07:10:22;18.52;;;12.07;;
351;SDS011;164;50.784;6.496;2024-03-08T07:12:50;13.70;;;9.68;;
351;SDS011;164;50.784;6.496;2024-03-08T07:15:18;14.52;;;10.98;;
351;SDS011;164;50.784;6.496;2024-03-08T07:17:46;19.35;;;12.65;;
351;SDS011;164;50.784;6.496;2024-03-08T07:20:13;20.60;;;13.18;;
351;SDS011;164;50.784;6.496;2024-03-08T07:22:43;17.65;;;11.20;;
351;SDS011;164;50.784;6.496;2024-03-08T07:25:12;13.68;;;10.75;;
351;SDS011;164;50.784;6.496;2024-03-08T07:27:50;15.40;;;10.65;;
351;SDS011;164;50.784;6.496;2024-03-08T07:30:18;16.17;;;12.10;;
351;SDS011;164;50.784;6.496;2024-03-08T07:33:03;15.00;;;9.35;;
351;SDS011;164;50.784;6.496;2024-03-08T07:35:32;15.07;;;10.93;;
351;SDS011;164;50.784;6.496;2024-03-08T07:38:01;16.52;;;9.80;;
351;SDS011;164;50.784;6.496;2024-03-08T07:40:29;16.15;;;10.90;;
351;SDS011;164;50.784;6.496;2024-03-08T07:42:58;17.40;;;10.82;;
351;SDS011;164;50.784;6.496;2024-03-08T07:45:25;16.35;;;12.00;;
351;SDS011;164;50.784;6.496;2024-03-08T07:47:52;18.92;;;11.60;;
351;SDS011;164;50.784;6.496;2024-03-08T07:50:21;19.55;;;13.13;;
351;SDS011;164;50.784;6.496;2024-03-08T07:52:48;15.45;;;11.00;;
351;SDS011;164;50.784;6.496;2024-03-08T07:55:15;16.65;;;10.65;;
351;SDS011;164;50.784;6.496;2024-03-08T07:57:42;14.75;;;10.50;;
351;SDS011;164;50.784;6.496;2024-03-08T08:00:11;15.88;;;9.45;;
351;SDS011;164;50.784;6.496;2024-03-08T08:02:42;13.40;;;9.32;;
351;SDS011;164;50.784;6.496;2024-03-08T08:05:10;16.23;;;10.77;;
351;SDS011;164;50.784;6.496;2024-03-08T08:07:38;13.93;;;10.23;;
351;SDS011;164;50.784;6.496;2024-03-08T08:10:08;15.48;;;10.20;;
351;SDS011;164;50.784;6.496;2024-03-08T08:12:41;15.60;;;11.43;;
351;SDS011;164;50.784;6.496;2024-03-08T08:15:09;17.70;;;12.05;;
351;SDS011;164;50.784;6.496;2024-03-08T08:17:37;16.08;;;10.82;;
351;SDS011;164;50.784;6.496;2024-03-08T08:20:05;17.83;;;11.50;;
351;SDS011;164;50.784;6.496;2024-03-08T08:22:32;18.00;;;10.85;;
351;SDS011;164;50.784;6.496;2024-03-08T08:24:59;14.70;;;10.77;;
351;SDS011;164;50.784;6.496;2024-03-08T08:27:26;12.90;;;8.95;;
351;SDS011;164;50.784;6.496;2024-03-08T08:29:54;15.75;;;11.27;;
351;SDS011;164;50.784;6.496;2024-03-08T08:32:22;18.92;;;11.93;;
351;SDS011;164;50.784;6.496;2024-03-08T08:34:51;13.52;;;10.07;;
351;SDS011;164;50.784;6.496;2024-03-08T08:37:18;13.73;;;9.70;;
351;SDS011;164;50.784;6.496;2024-03-08T08:39:45;15.68;;;10.32;;
351;SDS011;164;50.784;6.496;2024-03-08T08:42:12;16.08;;;10.82;;
351;SDS011;164;50.784;6.496;2024-03-08T08:44:40;14.02;;;9.95;;
351;SDS011;164;50.784;6.496;2024-03-08T08:47:07;14.73;;;11.18;;
351;SDS011;164;50.784;6.496;2024-03-08T08:49:34;17.60;;;10.73;;
351;SDS011;164;50.784;6.496;2024-03-08T08:52:03;15.43;;;10.02;;
351;SDS011;164;50.784;6.496;2024-03-08T08:54:30;15.45;;;10.48;;
351;SDS011;164;50.784;6.496;2024-03-08T08:56:57;15.00;;;10.05;;
351;SDS011;164;50.784;6.496;2024-03-08T08:59:25;14.65;;;10.65;;
351;SDS011;164;50.784;6.496;2024-03-08T09:01:52;14.20;;;9.55;;
351;SDS011;164;50.784;6.496;2024-03-08T09:04:19;15.88;;;9.38;;
351;SDS011;164;50.784;6.496;2024-03-08T09:06:48;12.00;;;8.90;;
351;SDS011;164;50.784;6.496;2024-03-08T09:09:16;12.95;;;8.13;;
351;SDS011;164;50.784;6.496;2024-03-08T09:11:44;14.13;;;8.75;;
351;SDS011;164;50.784;6.496;2024-03-08T09:14:11;12.25;;;8.80;;
351;SDS011;164;50.784;6.496;2024-03-08T09:16:39;12.18;;;9.35;;
351;SDS011;164;50.784;6.496;2024-03-08T09:19:07;15.57;;;10.10;;
351;SDS011;164;50.784;6.496;2024-03-08T09:21:36;13.88;;;9.30;;
351;SDS011;164;50.784;6.496;2024-03-08T09:24:04;13.68;;;9.68;;
351;SDS011;164;50.784;6.496;2024-03-08T09:26:33;12.77;;;10.60;;
351;SDS011;164;50.784;6.496;2024-03-08T09:29:00;10.73;;;7.78;;
351;SDS011;164;50.784;6.496;2024-03-08T09:31:28;12.93;;;9.48;;
351;SDS011;164;50.784;6.496;2024-03-08T09:33:55;15.00;;;9.35;;
351;SDS011;164;50.784;6.496;2024-03-08T09:36:22;11.77;;;8.65;;
351;SDS011;164;50.784;6.496;2024-03-08T09:38:50;13.50;;;8.57;;
351;SDS011;164;50.784;6.496;2024-03-08T09:41:18;14.50;;;8.23;;
351;SDS011;164;50.784;6.496;2024-03-08T09:43:47;15.32;;;8.85;;
351;SDS011;164;50.784;6.496;2024-03-08T09:46:14;13.57;;;9.18;;
351;SDS011;164;50.784;6.496;2024-03-08T09:48:42;10.48;;;6.82;;
351;SDS011;164;50.784;6.496;2024-03-08T09:51:11;11.73;;;7.63;;
351;SDS011;164;50.784;6.496;2024-03-08T09:53:40;10.98;;;8.55;;
351;SDS011;164;50.784;6.496;2024-03-08T09:56:08;21.60;;;8.23;;
351;SDS011;164;50.784;6.496;2024-03-08T09:58:37;10.68;;;7.60;;
351;SDS011;164;50.784;6.496;2024-03-08T10:01:21;9.80;;;7.90;;
351;SDS011;164;50.784;6.496;2024-03-08T10:03:48;9.45;;;7.70;;
351;SDS011;164;50.784;6.496;2024-03-08T10:06:15;12.75;;;7.30;;
351;SDS011;164;50.784;6.496;2024-03-08T10:08:43;13.75;;;7.60;;
351;SDS011;164;50.784;6.496;2024-03-08T10:11:10;12.48;;;9.05;;
351;SDS011;164;50.784;6.496;2024-03-08T10:13:38;11.68;;;8.00;;
351;SDS011;164;50.784;6.496;2024-03-08T10:16:06;10.32;;;7.95;;
351;SDS011;164;50.784;6.496;2024-03-08T10:18:35;13.05;;;8.63;;
351;SDS011;164;50.784;6.496;2024-03-08T10:21:03;11.07;;;7.82;;
351;SDS011;164;50.784;6.496;2024-03-08T10:23:30;9.38;;;7.07;;
351;SDS011;164;50.784;6.496;2024-03-08T10:26:08;12.15;;;8.50;;
351;SDS011;164;50.784;6.496;2024-03-08T10:28:36;16.33;;;8.07;;
351;SDS011;164;50.784;6.496;2024-03-08T10:31:03;11.55;;;8.20;;
351;SDS011;164;50.784;6.496;2024-03-08T10:33:32;8.93;;;6.95;;
351;SDS011;164;50.784;6.496;2024-03-08T10:36:01;10.73;;;7.85;;
351;SDS011;164;50.784;6.496;2024-03-08T10:38:30;16.45;;;7.50;;
351;SDS011;164;50.784;6.496;2024-03-08T10:40:59;12.55;;;7.25;;
351;SDS011;164;50.784;6.496;2024-03-08T10:43:27;10.30;;;7.60;;
351;SDS011;164;50.784;6.496;2024-03-08T10:46:08;7.45;;;6.30;;
351;SDS011;164;50.784;6.496;2024-03-08T10:48:43;12.35;;;7.75;;
351;SDS011;164;50.784;6.496;2024-03-08T10:51:12;12.07;;;8.55;;
351;SDS011;164;50.784;6.496;2024-03-08T10:53:39;10.88;;;7.28;;
351;SDS011;164;50.784;6.496;2024-03-08T10:56:06;10.50;;;6.97;;
351;SDS011;164;50.784;6.496;2024-03-08T10:58:35;12.45;;;8.48;;
351;SDS011;164;50.784;6.496;2024-03-08T11:01:03;9.73;;;7.00;;
351;SDS011;164;50.784;6.496;2024-03-08T11:03:44;10.93;;;7.03;;
351;SDS011;164;50.784;6.496;2024-03-08T11:06:15;9.23;;;6.47;;
351;SDS011;164;50.784;6.496;2024-03-08T11:08:42;12.65;;;7.78;;
351;SDS011;164;50.784;6.496;2024-03-08T11:11:26;11.05;;;7.97;;
351;SDS011;164;50.784;6.496;2024-03-08T11:13:55;13.35;;;8.15;;
351;SDS011;164;50.784;6.496;2024-03-08T11:16:39;10.40;;;6.85;;
351;SDS011;164;50.784;6.496;2024-03-08T11:21:58;11.30;;;7.30;;
351;SDS011;164;50.784;6.496;2024-03-08T11:24:25;9.43;;;5.60;;
351;SDS011;164;50.784;6.496;2024-03-08T11:26:54;8.73;;;5.80;;
351;SDS011;164;50.784;6.496;2024-03-08T11:29:34;8.07;;;5.85;;
351;SDS011;164;50.784;6.496;2024-03-08T11:32:07;10.20;;;6.78;;
351;SDS011;164;50.784;6.496;2024-03-08T11:34:34;10.27;;;7.10;;
351;SDS011;164;50.784;6.496;2024-03-08T11:37:05;11.70;;;6.75;;
351;SDS011;164;50.784;6.496;2024-03-08T11:39:34;12.55;;;7.72;;
351;SDS011;164;50.784;6.496;2024-03-08T11:42:03;8.50;;;6.80;;
351;SDS011;164;50.784;6.496;2024-03-08T11:44:30;9.88;;;7.18;;
351;SDS011;164;50.784;6.496;2024-03-08T11:46:57;8.93;;;6.93;;
351;SDS011;164;50.784;6.496;2024-03-08T11:49:25;8.85;;;6.65;;
351;SDS011;164;50.784;6.496;2024-03-08T11:51:52;7.70;;;6.50;;
351;SDS011;164;50.784;6.496;2024-03-08T11:54:22;11.27;;;6.72;;
351;SDS011;164;50.784;6.496;2024-03-08T11:56:51;11.20;;;6.43;;
351;SDS011;164;50.784;6.496;2024-03-08T11:59:20;12.73;;;6.88;;
351;SDS011;164;50.784;6.496;2024-03-08T12:01:58;9.35;;;6.63;;
351;SDS011;164;50.784;6.496;2024-03-08T12:04:27;10.38;;;7.15;;
351;SDS011;164;50.784;6.496;2024-03-08T12:06:54;10.85;;;7.20;;
351;SDS011;164;50.784;6.496;2024-03-08T12:09:22;13.45;;;6.90;;
351;SDS011;164;50.784;6.496;2024-03-08T12:11:49;9.55;;;6.15;;
351;SDS011;164;50.784;6.496;2024-03-08T12:14:17;12.05;;;7.25;;
351;SDS011;164;50.784;6.496;2024-03-08T12:16:44;8.63;;;6.10;;
351;SDS011;164;50.784;6.496;2024-03-08T12:19:11;9.20;;;6.80;;
351;SDS011;164;50.784;6.496;2024-03-08T12:21:39;8.70;;;6.35;;
351;SDS011;164;50.784;6.496;2024-03-08T12:24:13;8.85;;;6.30;;
351;SDS011;164;50.784;6.496;2024-03-08T12:26:43;8.00;;;7.35;;
351;SDS011;164;50.784;6.496;2024-03-08T12:29:20;11.63;;;6.85;;
351;SDS011;164;50.784;6.496;2024-03-08T12:31:47;7.68;;;5.20;;
351;SDS011;164;50.784;6.496;2024-03-08T12:34:15;8.57;;;6.57;;
351;SDS011;164;50.784;6.496;2024-03-08T12:36:46;7.90;;;5.45;;
351;SDS011;164;50.784;6.496;2024-03-08T12:39:18;9.18;;;5.88;;
351;SDS011;164;50.784;6.496;2024-03-08T12:41:49;10.23;;;6.53;;
351;SDS011;164;50.784;6.496;2024-03-08T12:44:17;9.75;;;5.95;;
351;SDS011;164;50.784;6.496;2024-03-08T12:46:46;9.55;;;6.00;;
351;SDS011;164;50.784;6.496;2024-03-08T12:49:14;7.68;;;5.60;;
351;SDS011;164;50.784;6.496;2024-03-08T12:51:43;8.07;;;6.32;;
351;SDS011;164;50.784;6.496;2024-03-08T12:54:10;5.60;;;4.93;;
351;SDS011;164;50.784;6.496;2024-03-08T12:56:37;8.73;;;5.28;;
351;SDS011;164;50.784;6.496;2024-03-08T12:59:06;9.38;;;5.65;;
351;SDS011;164;50.784;6.496;2024-03-08T13:01:35;7.22;;;6.18;;
351;SDS011;164;50.784;6.496;2024-03-08T13:04:03;8.40;;;5.82;;
351;SDS011;164;50.784;6.496;2024-03-08T13:06:31;6.93;;;5.35;;
351;SDS011;164;50.784;6.496;2024-03-08T13:08:58;6.95;;;4.60;;
351;SDS011;164;50.784;6.496;2024-03-08T13:11:30;7.22;;;5.40;;
351;SDS011;164;50.784;6.496;2024-03-08T13:14:01;6.63;;;5.25;;
351;SDS011;164;50.784;6.496;2024-03-08T13:16:30;12.60;;;6.35;;
351;SDS011;164;50.784;6.496;2024-03-08T13:18:59;10.35;;;6.15;;
351;SDS011;164;50.784;6.496;2024-03-08T13:21:27;9.00;;;5.57;;
351;SDS011;164;50.784;6.496;2024-03-08T13:23:55;7.63;;;5.18;;
351;SDS011;164;50.784;6.496;2024-03-08T13:26:24;8.80;;;5.80;;
351;SDS011;164;50.784;6.496;2024-03-08T13:28:57;7.32;;;5.20;;
351;SDS011;164;50.784;6.496;2024-03-08T13:31:25;6.68;;;5.38;;
351;SDS011;164;50.784;6.496;2024-03-08T13:33:53;7.57;;;4.82;;
351;SDS011;164;50.784;6.496;2024-03-08T13:36:23;4.97;;;4.35;;
351;SDS011;164;50.784;6.496;2024-03-08T13:38:54;5.65;;;4.45;;
351;SDS011;164;50.784;6.496;2024-03-08T13:41:24;6.05;;;4.93;;
351;SDS011;164;50.784;6.496;2024-03-08T13:43:51;6.05;;;5.30;;
351;SDS011;164;50.784;6.496;2024-03-08T13:46:20;6.60;;;5.05;;
351;SDS011;164;50.784;6.496;2024-03-08T13:48:49;10.32;;;5.57;;
351;SDS011;164;50.784;6.496;2024-03-08T13:51:18;6.75;;;4.25;;
351;SDS011;164;50.784;6.496;2024-03-08T13:53:47;7.30;;;6.28;;
351;SDS011;164;50.784;6.496;2024-03-08T13:56:14;8.63;;;5.65;;
351;SDS011;164;50.784;6.496;2024-03-08T13:58:42;7.55;;;5.20;;
351;SDS011;164;50.784;6.496;2024-03-08T14:01:09;8.15;;;4.70;;
351;SDS011;164;50.784;6.496;2024-03-08T14:03:37;6.28;;;5.72;;
351;SDS011;164;50.784;6.496;2024-03-08T14:06:06;7.50;;;5.45;;
351;SDS011;164;50.784;6.496;2024-03-08T14:08:35;9.85;;;6.60;;
351;SDS011;164;50.784;6.496;2024-03-08T14:11:03;8.77;;;5.97;;
351;SDS011;164;50.784;6.496;2024-03-08T14:13:40;7.53;;;5.47;;
351;SDS011;164;50.784;6.496;2024-03-08T14:16:10;6.75;;;5.07;;
351;SDS011;164;50.784;6.496;2024-03-08T14:18:37;5.82;;;4.93;;
351;SDS011;164;50.784;6.496;2024-03-08T14:21:04;6.05;;;5.38;;
351;SDS011;164;50.784;6.496;2024-03-08T14:23:33;7.03;;;5.32;;
351;SDS011;164;50.784;6.496;2024-03-08T14:26:02;6.13;;;4.65;;
351;SDS011;164;50.784;6.496;2024-03-08T14:28:32;6.30;;;4.43;;
351;SDS011;164;50.784;6.496;2024-03-08T14:30:59;6.95;;;4.93;;
351;SDS011;164;50.784;6.496;2024-03-08T14:33:28;6.88;;;4.93;;
351;SDS011;164;50.784;6.496;2024-03-08T14:35:56;6.53;;;5.80;;
351;SDS011;164;50.784;6.496;2024-03-08T14:38:23;9.38;;;5.57;;
351;SDS011;164;50.784;6.496;2024-03-08T14:40:52;6.78;;;5.45;;
351;SDS011;164;50.784;6.496;2024-03-08T14:43:21;9.05;;;6.35;;
351;SDS011;164;50.784;6.496;2024-03-08T14:45:49;7.22;;;5.40;;
351;SDS011;164;50.784;6.496;2024-03-08T14:48:17;5.75;;;5.45;;
351;SDS011;164;50.784;6.496;2024-03-08T14:50:45;6.57;;;5.25;;
351;SDS011;164;50.784;6.496;2024-03-08T14:53:13;5.95;;;5.68;;
351;SDS011;164;50.784;6.496;2024-03-08T14:55:40;7.22;;;5.28;;
351;SDS011;164;50.784;6.496;2024-03-08T14:58:07;5.53;;;5.22;;
351;SDS011;164;50.784;6.496;2024-03-08T15:00:37;7.85;;;6.05;;
351;SDS011;164;50.784;6.496;2024-03-08T15:03:06;5.40;;;5.10;;
351;SDS011;164;50.784;6.496;2024-03-08T15:05:38;5.30;;;4.55;;
351;SDS011;164;50.784;6.496;2024-03-08T15:08:07;7.80;;;5.78;;
351;SDS011;164;50.784;6.496;2024-03-08T15:10:44;9.48;;;5.70;;
351;SDS011;164;50.784;6.496;2024-03-08T15:13:12;10.85;;;6.43;;
351;SDS011;164;50.784;6.496;2024-03-08T15:15:49;6.65;;;5.00;;
351;SDS011;164;50.784;6.496;2024-03-08T15:18:21;6.03;;;5.10;;
351;SDS011;164;50.784;6.496;2024-03-08T15:20:51;6.85;;;4.80;;
351;SDS011;164;50.784;6.496;2024-03-08T15:23:18;8.18;;;6.10;;
351;SDS011;164;50.784;6.496;2024-03-08T15:25:46;6.97;;;5.50;;
351;SDS011;164;50.784;6.496;2024-03-08T15:28:14;7.45;;;5.53;;
351;SDS011;164;50.784;6.496;2024-03-08T15:30:44;6.85;;;4.72;;
351;SDS011;164;50.784;6.496;2024-03-08T15:33:20;6.82;;;5.20;;
351;SDS011;164;50.784;6.496;2024-03-08T15:35:50;11.23;;;6.03;;
351;SDS011;164;50.784;6.496;2024-03-08T15:38:23;11.77;;;6.13;;
351;SDS011;164;50.784;6.496;2024-03-08T15:40:52;7.63;;;5.38;;